Time,TemperatureF,DewpointF,PressureIn,WindDirection,WindDirectionDegrees,WindSpeedMPH,WindSpeedGustMPH,Humidity,HourlyPrecipIn,Conditions,Clouds,dailyrainin,SoftwareType,DateUTC
2013-09-17 00:02:00,60.6,37.4,24.10,NW,315,21.0,21.0,42,0.00,,,0.00,meteohub,2013-09-17 06:02:00,
2013-09-17 00:07:00,60.6,37.4,24.10,NW,315,21.0,21.0,42,0.00,,,0.00,meteohub,2013-09-17 06:07:00,
2013-09-17 00:12:00,60.4,37.8,24.11,NW,315,17.0,21.0,43,0.00,,,0.00,meteohub,2013-09-17 06:12:00,
2013-09-17 00:17:00,60.3,37.8,24.10,North,0,17.0,21.0,43,0.00,,,0.00,meteohub,2013-09-17 06:17:00,
2013-09-17 00:22:00,60.6,38.7,24.11,North,0,14.0,21.0,44,0.00,,,0.00,meteohub,2013-09-17 06:22:00,
2013-09-17 00:27:00,60.4,38.5,24.11,North,0,13.0,18.0,44,0.00,,,0.00,meteohub,2013-09-17 06:27:00,
2013-09-17 00:32:00,60.6,38.7,24.10,North,0,11.0,17.0,44,0.00,,,0.00,meteohub,2013-09-17 06:32:00,
2013-09-17 00:37:00,60.6,38.7,24.11,NNE,23,12.0,16.0,44,0.00,,,0.00,meteohub,2013-09-17 06:37:00,
2013-09-17 00:42:00,60.4,39.0,24.11,North,0,12.0,16.0,45,0.00,,,0.00,meteohub,2013-09-17 06:42:00,
2013-09-17 00:47:00,60.3,39.4,24.11,North,0,14.0,16.0,46,0.00,,,0.00,meteohub,2013-09-17 06:47:00,
2013-09-17 00:52:00,60.6,39.2,24.11,North,0,10.0,14.0,45,0.00,,,0.00,meteohub,2013-09-17 06:52:00,
2013-09-17 00:57:00,60.1,38.7,24.11,North,0,11.0,14.0,45,0.00,,,0.00,meteohub,2013-09-17 06:57:00,
2013-09-17 01:02:00,59.9,38.5,24.11,NE,45,8.0,14.0,45,0.00,,,0.00,meteohub,2013-09-17 07:02:00,
2013-09-17 01:07:00,59.9,38.5,24.11,NE,45,8.0,12.0,45,0.00,,,0.00,meteohub,2013-09-17 07:07:00,
2013-09-17 01:12:00,59.9,37.9,24.10,NE,45,11.0,12.0,44,0.00,,,0.00,meteohub,2013-09-17 07:12:00,
2013-09-17 01:17:00,59.9,39.6,24.10,NE,45,11.0,11.0,47,0.00,,,0.00,meteohub,2013-09-17 07:17:00,
2013-09-17 01:22:00,59.4,41.2,24.10,East,90,11.0,11.0,51,0.00,,,0.00,meteohub,2013-09-17 07:22:00,
2013-09-17 01:27:00,59.5,41.9,24.10,East,90,11.0,11.0,52,0.00,,,0.00,meteohub,2013-09-17 07:27:00,
2013-09-17 01:32:00,59.2,41.5,24.10,NE,45,11.0,11.0,52,0.00,,,0.00,meteohub,2013-09-17 07:32:00,
2013-09-17 01:37:00,59.5,41.9,24.10,East,90,9.0,11.0,52,0.00,,,0.00,meteohub,2013-09-17 07:37:00,
2013-09-17 01:42:00,59.7,41.5,24.10,East,90,9.0,11.0,51,0.00,,,0.00,meteohub,2013-09-17 07:42:00,
2013-09-17 01:47:00,59.5,41.4,24.10,East,90,9.0,11.0,51,0.00,,,0.00,meteohub,2013-09-17 07:47:00,
2013-09-17 01:52:00,59.4,41.2,24.10,ENE,68,7.0,11.0,51,0.00,,,0.00,meteohub,2013-09-17 07:52:00,
2013-09-17 01:57:00,59.4,41.2,24.10,East,90,7.0,11.0,51,0.00,,,0.00,meteohub,2013-09-17 07:57:00,
2013-09-17 02:02:00,59.7,41.0,24.10,East,90,7.0,9.0,50,0.00,,,0.00,meteohub,2013-09-17 08:02:00,
2013-09-17 02:07:00,59.7,41.0,24.10,East,90,7.0,8.0,50,0.00,,,0.00,meteohub,2013-09-17 08:07:00,
2013-09-17 02:12:00,60.1,40.8,24.10,SE,135,5.0,8.0,49,0.00,,,0.00,meteohub,2013-09-17 08:12:00,
2013-09-17 02:17:00,60.1,41.4,24.10,SE,135,4.0,7.0,50,0.00,,,0.00,meteohub,2013-09-17 08:17:00,
2013-09-17 02:22:00,59.9,41.7,24.09,SE,135,5.0,7.0,51,0.00,,,0.00,meteohub,2013-09-17 08:22:00,
2013-09-17 02:27:00,59.7,41.5,24.10,SE,135,6.0,6.0,51,0.00,,,0.00,meteohub,2013-09-17 08:27:00,
2013-09-17 02:32:00,59.5,41.4,24.10,SE,135,5.0,7.0,51,0.00,,,0.00,meteohub,2013-09-17 08:32:00,
2013-09-17 02:37:00,59.4,41.2,24.09,SE,135,4.0,7.0,51,0.00,,,0.00,meteohub,2013-09-17 08:37:00,
2013-09-17 02:42:00,59.7,40.5,24.10,SE,135,4.0,7.0,49,0.00,,,0.00,meteohub,2013-09-17 08:42:00,
2013-09-17 02:47:00,59.7,39.9,24.09,SE,135,6.0,6.0,48,0.00,,,0.00,meteohub,2013-09-17 08:47:00,
2013-09-17 02:52:00,60.1,40.3,24.09,SE,135,6.0,6.0,48,0.00,,,0.00,meteohub,2013-09-17 08:52:00,
2013-09-17 02:57:00,60.1,40.3,24.09,SE,135,5.0,6.0,48,0.00,,,0.00,meteohub,2013-09-17 08:57:00,
2013-09-17 03:02:00,60.1,40.3,24.09,SE,135,4.0,6.0,48,0.00,,,0.00,meteohub,2013-09-17 09:02:00,
2013-09-17 03:07:00,60.1,40.3,24.09,SE,135,4.0,6.0,48,0.00,,,0.00,meteohub,2013-09-17 09:07:00,
2013-09-17 03:12:00,60.1,40.3,24.09,SE,135,4.0,5.0,48,0.00,,,0.00,meteohub,2013-09-17 09:12:00,
2013-09-17 03:17:00,59.7,39.9,24.09,SE,135,4.0,5.0,48,0.00,,,0.00,meteohub,2013-09-17 09:17:00,
2013-09-17 03:22:00,59.9,40.1,24.09,SE,135,4.0,5.0,48,0.00,,,0.00,meteohub,2013-09-17 09:22:00,
2013-09-17 03:27:00,59.2,39.6,24.09,SE,135,2.0,5.0,48,0.00,,,0.00,meteohub,2013-09-17 09:27:00,
2013-09-17 03:32:00,59.2,39.6,24.09,SE,135,2.0,4.0,48,0.00,,,0.00,meteohub,2013-09-17 09:32:00,
2013-09-17 03:37:00,59.4,39.7,24.09,South,180,3.0,4.0,48,0.00,,,0.00,meteohub,2013-09-17 09:37:00,
2013-09-17 03:42:00,59.4,39.2,24.09,South,180,2.0,3.0,47,0.00,,,0.00,meteohub,2013-09-17 09:42:00,
2013-09-17 03:47:00,59.2,39.6,24.09,SW,225,2.0,3.0,48,0.00,,,0.00,meteohub,2013-09-17 09:47:00,
2013-09-17 03:52:00,59.0,39.9,24.09,NW,315,7.0,7.0,49,0.00,,,0.00,meteohub,2013-09-17 09:52:00,
2013-09-17 03:57:00,58.3,40.3,24.09,NW,315,6.0,7.0,51,0.00,,,0.00,meteohub,2013-09-17 09:57:00,
2013-09-17 04:02:00,58.3,40.3,24.09,NW,315,6.0,7.0,51,0.00,,,0.00,meteohub,2013-09-17 10:02:00,
2013-09-17 04:07:00,58.3,40.3,24.09,NW,315,6.0,7.0,51,0.00,,,0.00,meteohub,2013-09-17 10:07:00,
2013-09-17 04:12:00,58.5,40.8,24.09,NW,315,4.0,6.0,52,0.00,,,0.00,meteohub,2013-09-17 10:12:00,
2013-09-17 04:17:00,58.3,40.3,24.09,West,270,4.0,6.0,51,0.00,,,0.00,meteohub,2013-09-17 10:17:00,
2013-09-17 04:22:00,58.5,40.5,24.10,West,270,4.0,6.0,51,0.00,,,0.00,meteohub,2013-09-17 10:22:00,
2013-09-17 04:27:00,58.8,39.7,24.09,NW,315,5.0,5.0,49,0.00,,,0.00,meteohub,2013-09-17 10:27:00,
2013-09-17 04:32:00,58.8,39.7,24.09,NW,315,4.0,5.0,49,0.00,,,0.00,meteohub,2013-09-17 10:32:00,
2013-09-17 04:37:00,58.6,39.0,24.09,NW,315,5.0,5.0,48,0.00,,,0.00,meteohub,2013-09-17 10:37:00,
2013-09-17 04:42:00,58.8,39.2,24.09,NW,315,3.0,5.0,48,0.00,,,0.00,meteohub,2013-09-17 10:42:00,
2013-09-17 04:47:00,59.0,39.4,24.09,NW,315,3.0,5.0,48,0.00,,,0.00,meteohub,2013-09-17 10:47:00,
2013-09-17 04:52:00,59.0,38.8,24.09,NW,315,3.0,5.0,47,0.00,,,0.00,meteohub,2013-09-17 10:52:00,
2013-09-17 04:57:00,59.0,39.4,24.09,NW,315,8.0,8.0,48,0.00,,,0.00,meteohub,2013-09-17 10:57:00,
2013-09-17 05:02:00,58.6,39.6,24.08,NW,315,8.0,8.0,49,0.00,,,0.00,meteohub,2013-09-17 11:02:00,
2013-09-17 05:07:00,58.6,39.6,24.09,NW,315,8.0,8.0,49,0.00,,,0.00,meteohub,2013-09-17 11:07:00,
2013-09-17 05:12:00,58.3,41.2,24.09,NW,315,11.0,11.0,53,0.00,,,0.00,meteohub,2013-09-17 11:12:00,
2013-09-17 05:17:00,57.9,41.4,24.09,NW,315,10.0,13.0,54,0.00,,,0.00,meteohub,2013-09-17 11:17:00,
2013-09-17 05:22:00,58.5,41.4,24.08,NW,315,11.0,13.0,53,0.00,,,0.00,meteohub,2013-09-17 11:22:00,
2013-09-17 05:27:00,57.9,40.8,24.09,West,270,7.0,13.0,53,0.00,,,0.00,meteohub,2013-09-17 11:27:00,
2013-09-17 05:32:00,57.7,40.6,24.09,NW,315,8.0,11.0,53,0.00,,,0.00,meteohub,2013-09-17 11:32:00,
2013-09-17 05:37:00,57.6,41.5,24.09,NW,315,15.0,15.0,55,0.00,,,0.00,meteohub,2013-09-17 11:37:00,
2013-09-17 05:42:00,57.9,40.8,24.09,NW,315,14.0,18.0,53,0.00,,,0.00,meteohub,2013-09-17 11:42:00,
2013-09-17 05:47:00,57.9,40.8,24.09,NW,315,12.0,18.0,53,0.00,,,0.00,meteohub,2013-09-17 11:47:00,
2013-09-17 05:52:00,58.1,41.0,24.09,West,270,11.0,18.0,53,0.00,,,0.00,meteohub,2013-09-17 11:52:00,
2013-09-17 05:57:00,57.6,41.5,24.09,NW,315,13.0,15.0,55,0.00,,,0.00,meteohub,2013-09-17 11:57:00,
2013-09-17 06:02:00,57.7,41.2,24.08,West,270,11.0,14.0,54,0.00,,,0.00,meteohub,2013-09-17 12:02:00,
2013-09-17 06:07:00,57.7,41.2,24.08,West,270,11.0,13.0,54,0.00,,,0.00,meteohub,2013-09-17 12:07:00,
2013-09-17 06:12:00,58.1,41.0,24.08,NW,315,12.0,13.0,53,0.00,,,0.00,meteohub,2013-09-17 12:12:00,
2013-09-17 06:17:00,57.6,41.0,24.08,West,270,8.0,15.0,54,0.00,,,0.00,meteohub,2013-09-17 12:17:00,
2013-09-17 06:22:00,57.0,40.5,24.08,West,270,10.0,15.0,54,0.00,,,0.00,meteohub,2013-09-17 12:22:00,
2013-09-17 06:27:00,57.0,41.0,24.08,West,270,6.0,15.0,55,0.00,,,0.00,meteohub,2013-09-17 12:27:00,
2013-09-17 06:32:00,55.8,40.8,24.08,SE,135,4.0,14.0,57,0.00,,,0.00,meteohub,2013-09-17 12:32:00,
2013-09-17 06:37:00,55.4,41.4,24.08,NW,315,1.0,14.0,59,0.00,,,0.00,meteohub,2013-09-17 12:37:00,
2013-09-17 06:42:00,55.0,41.9,24.07,South,180,2.0,8.0,61,0.00,,,0.00,meteohub,2013-09-17 12:42:00,
2013-09-17 06:47:00,55.0,41.9,24.07,SSE,158,3.0,4.0,61,0.00,,,0.00,meteohub,2013-09-17 12:47:00,
2013-09-17 06:52:00,55.0,41.9,24.07,SW,225,2.0,4.0,61,0.00,,,0.00,meteohub,2013-09-17 12:52:00,
2013-09-17 06:57:00,55.0,41.9,24.07,NW,315,2.0,4.0,61,0.00,,,0.00,meteohub,2013-09-17 12:57:00,
2013-09-17 07:02:00,55.0,41.9,24.07,NW,315,2.0,4.0,61,0.00,,,0.00,meteohub,2013-09-17 13:02:00,
2013-09-17 07:07:00,55.0,41.9,24.07,NW,315,2.0,4.0,61,0.00,,,0.00,meteohub,2013-09-17 13:07:00,
2013-09-17 07:12:00,55.4,42.3,24.07,West,270,4.0,4.0,61,0.00,,,0.00,meteohub,2013-09-17 13:12:00,
2013-09-17 07:17:00,55.6,42.3,24.07,West,270,2.0,4.0,61,0.00,,,0.00,meteohub,2013-09-17 13:17:00,
2013-09-17 07:22:00,55.6,42.3,24.07,West,270,3.0,4.0,61,0.00,,,0.00,meteohub,2013-09-17 13:22:00,
2013-09-17 07:27:00,55.9,42.3,24.07,SW,225,3.0,4.0,60,0.00,,,0.00,meteohub,2013-09-17 13:27:00,
2013-09-17 07:32:00,56.8,42.6,24.07,SW,225,2.0,4.0,59,0.00,,,0.00,meteohub,2013-09-17 13:32:00,
2013-09-17 07:37:00,58.3,42.3,24.07,SW,225,3.0,4.0,55,0.00,,,0.00,meteohub,2013-09-17 13:37:00,
2013-09-17 07:42:00,59.4,42.3,24.07,West,270,2.0,4.0,53,0.00,,,0.00,meteohub,2013-09-17 13:42:00,
2013-09-17 07:47:00,60.3,42.1,24.07,West,270,2.0,4.0,51,0.00,,,0.00,meteohub,2013-09-17 13:47:00,
2013-09-17 07:52:00,61.2,42.4,24.07,West,270,2.0,4.0,50,0.00,,,0.00,meteohub,2013-09-17 13:52:00,
2013-09-17 07:57:00,62.1,39.9,24.07,South,180,3.0,3.0,44,0.00,,,0.00,meteohub,2013-09-17 13:57:00,
2013-09-17 08:02:00,61.7,40.1,24.07,South,180,3.0,4.0,45,0.00,,,0.00,meteohub,2013-09-17 14:02:00,
2013-09-17 08:07:00,61.7,40.1,24.07,South,180,3.0,4.0,45,0.00,,,0.00,meteohub,2013-09-17 14:07:00,
2013-09-17 08:12:00,62.1,41.5,24.07,South,180,3.0,4.0,47,0.00,,,0.00,meteohub,2013-09-17 14:12:00,
2013-09-17 08:17:00,61.9,40.3,24.07,South,180,7.0,7.0,45,0.00,,,0.00,meteohub,2013-09-17 14:17:00,
2013-09-17 08:22:00,61.2,41.4,24.08,South,180,6.0,7.0,48,0.00,,,0.00,meteohub,2013-09-17 14:22:00,
2013-09-17 08:27:00,58.8,40.8,24.08,South,180,8.0,8.0,51,0.00,,,0.00,meteohub,2013-09-17 14:27:00,
2013-09-17 08:32:00,57.4,40.8,24.08,South,180,4.0,8.0,54,0.00,,,0.00,meteohub,2013-09-17 14:32:00,
2013-09-17 08:37:00,57.0,41.5,24.08,NW,315,3.0,8.0,56,0.00,,,0.00,meteohub,2013-09-17 14:37:00,
2013-09-17 08:42:00,58.1,42.4,24.07,NW,315,6.0,8.0,56,0.00,,,0.00,meteohub,2013-09-17 14:42:00,
2013-09-17 08:47:00,58.5,42.4,24.07,NW,315,4.0,7.0,55,0.00,,,0.00,meteohub,2013-09-17 14:47:00,
2013-09-17 08:52:00,59.2,42.6,24.07,NW,315,3.0,6.0,54,0.00,,,0.00,meteohub,2013-09-17 14:52:00,
2013-09-17 08:57:00,59.5,42.4,24.06,NW,315,2.0,6.0,53,0.00,,,0.00,meteohub,2013-09-17 14:57:00,
2013-09-17 09:02:00,59.7,42.6,24.07,NW,315,3.0,4.0,53,0.00,,,0.00,meteohub,2013-09-17 15:02:00,
2013-09-17 09:07:00,59.7,42.6,24.07,NW,315,3.0,4.0,53,0.00,,,0.00,meteohub,2013-09-17 15:07:00,
2013-09-17 09:12:00,59.2,42.6,24.07,NNW,338,4.0,4.0,54,0.00,,,0.00,meteohub,2013-09-17 15:12:00,
2013-09-17 09:17:00,59.2,43.0,24.07,NW,315,4.0,5.0,55,0.00,,,0.00,meteohub,2013-09-17 15:17:00,
2013-09-17 09:22:00,59.2,43.0,24.07,NW,315,3.0,5.0,55,0.00,,,0.00,meteohub,2013-09-17 15:22:00,
2013-09-17 09:27:00,59.2,42.6,24.07,NW,315,4.0,5.0,54,0.00,,,0.00,meteohub,2013-09-17 15:27:00,
2013-09-17 09:32:00,59.5,42.4,24.07,North,0,5.0,5.0,53,0.00,,,0.00,meteohub,2013-09-17 15:32:00,
2013-09-17 09:37:00,59.7,42.6,24.07,NE,45,3.0,5.0,53,0.00,,,0.00,meteohub,2013-09-17 15:37:00,
2013-09-17 09:42:00,59.5,40.8,24.07,SE,135,6.0,6.0,50,0.00,,,0.00,meteohub,2013-09-17 15:42:00,
2013-09-17 09:47:00,58.3,41.2,24.07,SE,135,4.0,7.0,53,0.00,,,0.00,meteohub,2013-09-17 15:47:00,
2013-09-17 09:52:00,58.1,42.1,24.07,SE,135,4.0,8.0,55,0.00,,,0.00,meteohub,2013-09-17 15:52:00,
2013-09-17 09:57:00,58.5,41.9,24.07,SE,135,6.0,8.0,54,0.00,,,0.00,meteohub,2013-09-17 15:57:00,
2013-09-17 10:02:00,58.3,41.2,24.07,SE,135,5.0,8.0,53,0.00,,,0.00,meteohub,2013-09-17 16:02:00,
2013-09-17 10:07:00,58.3,41.2,24.07,SE,135,5.0,6.0,53,0.00,,,0.00,meteohub,2013-09-17 16:07:00,
2013-09-17 10:12:00,58.5,42.4,24.08,South,180,6.0,6.0,55,0.00,,,0.00,meteohub,2013-09-17 16:12:00,
2013-09-17 10:17:00,58.8,41.7,24.07,South,180,4.0,6.0,53,0.00,,,0.00,meteohub,2013-09-17 16:17:00,
2013-09-17 10:22:00,59.0,41.9,24.07,SE,135,4.0,6.0,53,0.00,,,0.00,meteohub,2013-09-17 16:22:00,
2013-09-17 10:27:00,59.9,42.3,24.07,South,180,2.0,6.0,52,0.00,,,0.00,meteohub,2013-09-17 16:27:00,
2013-09-17 10:32:00,60.6,41.4,24.07,North,0,0.0,4.0,49,0.00,,,0.00,meteohub,2013-09-17 16:32:00,
2013-09-17 10:37:00,61.2,41.4,24.07,North,0,3.0,4.0,48,0.00,,,0.00,meteohub,2013-09-17 16:37:00,
2013-09-17 10:42:00,61.0,41.2,24.07,NE,45,4.0,4.0,48,0.00,,,0.00,meteohub,2013-09-17 16:42:00,
2013-09-17 10:47:00,60.4,40.6,24.07,SE,135,4.0,4.0,48,0.00,,,0.00,meteohub,2013-09-17 16:47:00,
2013-09-17 10:52:00,58.6,45.3,24.07,SE,135,8.0,8.0,61,0.00,,,0.00,meteohub,2013-09-17 16:52:00,
2013-09-17 10:57:00,55.2,43.7,24.08,South,180,8.0,8.0,65,0.00,,,0.00,meteohub,2013-09-17 16:57:00,
2013-09-17 11:02:00,53.8,43.2,24.07,SE,135,10.0,10.0,67,0.00,,,0.00,meteohub,2013-09-17 17:02:00,
2013-09-17 11:07:00,53.8,43.2,24.07,SE,135,10.0,10.0,67,0.00,,,0.00,meteohub,2013-09-17 17:07:00,
2013-09-17 11:12:00,52.5,42.3,24.07,SE,135,8.0,10.0,68,0.00,,,0.00,meteohub,2013-09-17 17:12:00,
2013-09-17 11:17:00,53.2,42.3,24.06,SE,135,8.0,12.0,66,0.00,,,0.00,meteohub,2013-09-17 17:17:00,
2013-09-17 11:22:00,53.6,41.7,24.06,SE,135,12.0,12.0,64,0.00,,,0.00,meteohub,2013-09-17 17:22:00,
2013-09-17 11:27:00,53.6,42.4,24.06,SE,135,10.0,12.0,66,0.00,,,0.00,meteohub,2013-09-17 17:27:00,
2013-09-17 11:32:00,54.0,42.4,24.06,SE,135,12.0,14.0,65,0.00,,,0.00,meteohub,2013-09-17 17:32:00,
2013-09-17 11:37:00,54.7,42.3,24.06,SSE,158,10.0,14.0,63,0.00,,,0.00,meteohub,2013-09-17 17:37:00,
2013-09-17 11:42:00,54.5,42.1,24.06,SSE,158,18.0,18.0,63,0.00,,,0.00,meteohub,2013-09-17 17:42:00,
2013-09-17 11:47:00,54.5,42.6,24.06,South,180,21.0,21.0,64,0.00,,,0.00,meteohub,2013-09-17 17:47:00,
2013-09-17 11:52:00,53.8,43.5,24.05,SSE,158,21.0,21.0,68,0.00,,,0.00,meteohub,2013-09-17 17:52:00,
2013-09-17 11:57:00,53.4,43.2,24.04,SSE,158,23.0,25.0,68,0.00,,,0.00,meteohub,2013-09-17 17:57:00,
2013-09-17 12:02:00,53.4,43.5,24.04,SE,135,23.0,25.0,69,0.00,,,0.00,meteohub,2013-09-17 18:02:00,
2013-09-17 12:07:00,53.4,43.5,24.03,SE,135,23.0,24.0,69,0.00,,,0.00,meteohub,2013-09-17 18:07:00,
2013-09-17 12:12:00,53.1,43.9,24.02,South,180,28.0,28.0,71,0.00,,,0.00,meteohub,2013-09-17 18:12:00,
2013-09-17 12:17:00,52.9,44.1,24.02,SE,135,29.0,29.0,72,0.00,,,0.00,meteohub,2013-09-17 18:17:00,
2013-09-17 12:22:00,52.9,44.4,24.02,SE,135,31.0,31.0,73,0.00,,,0.00,meteohub,2013-09-17 18:22:00,
2013-09-17 12:27:00,53.6,44.4,24.00,SSE,158,31.0,31.0,71,0.00,,,0.00,meteohub,2013-09-17 18:27:00,
2013-09-17 12:32:00,54.0,44.8,24.00,SSE,158,32.0,32.0,71,0.00,,,0.00,meteohub,2013-09-17 18:32:00,
2013-09-17 12:37:00,54.7,44.8,24.00,South,180,30.0,33.0,69,0.00,,,0.00,meteohub,2013-09-17 18:37:00,
2013-09-17 12:42:00,55.6,44.8,24.00,South,180,33.0,33.0,67,0.00,,,0.00,meteohub,2013-09-17 18:42:00,
2013-09-17 12:47:00,55.8,45.0,24.01,South,180,30.0,33.0,67,0.00,,,0.00,meteohub,2013-09-17 18:47:00,
2013-09-17 12:52:00,55.0,45.1,24.02,South,180,31.0,36.0,69,0.00,,,0.00,meteohub,2013-09-17 18:52:00,
2013-09-17 12:57:00,55.0,45.5,24.03,South,180,27.0,36.0,70,0.00,,,0.00,meteohub,2013-09-17 18:57:00,
2013-09-17 13:02:00,55.2,45.7,24.04,South,180,21.0,36.0,70,0.00,,,0.00,meteohub,2013-09-17 19:02:00,
2013-09-17 13:07:00,55.2,45.7,24.03,South,180,21.0,34.0,70,0.00,,,0.00,meteohub,2013-09-17 19:07:00,
2013-09-17 13:12:00,54.9,45.3,24.03,South,180,25.0,27.0,70,0.00,,,0.00,meteohub,2013-09-17 19:12:00,
2013-09-17 13:17:00,54.7,45.5,24.04,South,180,20.0,27.0,71,0.00,,,0.00,meteohub,2013-09-17 19:17:00,
2013-09-17 13:22:00,54.7,45.1,24.05,South,180,16.0,27.0,70,0.00,,,0.00,meteohub,2013-09-17 19:22:00,
2013-09-17 13:27:00,54.7,45.5,24.05,SSW,203,19.0,26.0,71,0.00,,,0.00,meteohub,2013-09-17 19:27:00,
2013-09-17 13:32:00,54.1,46.0,24.05,South,180,23.0,29.0,74,0.00,,,0.00,meteohub,2013-09-17 19:32:00,
2013-09-17 13:37:00,53.8,46.0,24.04,South,180,34.0,34.0,75,0.00,,,0.00,meteohub,2013-09-17 19:37:00,
2013-09-17 13:42:00,53.2,46.6,24.04,South,180,30.0,34.0,78,0.00,,,0.00,meteohub,2013-09-17 19:42:00,
2013-09-17 13:47:00,52.9,46.9,24.04,South,180,28.0,34.0,80,0.00,,,0.00,meteohub,2013-09-17 19:47:00,
2013-09-17 13:52:00,52.3,48.0,24.05,South,180,26.0,34.0,85,0.00,,,0.00,meteohub,2013-09-17 19:52:00,
2013-09-17 13:57:00,51.6,48.6,24.04,South,180,27.0,33.0,89,0.00,,,0.00,meteohub,2013-09-17 19:57:00,
2013-09-17 14:02:00,51.3,48.7,24.05,South,180,31.0,32.0,91,0.00,,,0.00,meteohub,2013-09-17 20:02:00,
2013-09-17 14:07:00,51.3,48.7,24.04,South,180,31.0,32.0,91,0.00,,,0.00,meteohub,2013-09-17 20:07:00,
2013-09-17 14:12:00,50.9,49.3,24.03,South,180,25.0,32.0,94,0.00,,,0.00,meteohub,2013-09-17 20:12:00,
2013-09-17 14:17:00,50.5,49.5,24.03,South,180,21.0,31.0,96,0.00,,,0.00,meteohub,2013-09-17 20:17:00,
2013-09-17 14:22:00,50.5,50.0,24.03,South,180,19.0,31.0,98,0.00,,,0.00,meteohub,2013-09-17 20:22:00,
2013-09-17 14:27:00,50.7,50.2,24.01,South,180,16.0,27.0,98,0.00,,,0.00,meteohub,2013-09-17 20:27:00,
2013-09-17 14:32:00,51.6,51.3,24.01,SE,135,16.0,23.0,99,0.00,,,0.00,meteohub,2013-09-17 20:32:00,
2013-09-17 14:37:00,52.5,52.2,24.00,SE,135,17.0,23.0,99,0.00,,,0.00,meteohub,2013-09-17 20:37:00,
2013-09-17 14:42:00,52.3,52.0,24.00,SE,135,23.0,23.0,99,0.00,,,0.00,meteohub,2013-09-17 20:42:00,
2013-09-17 14:47:00,51.8,51.4,23.99,SE,135,23.0,24.0,99,0.00,,,0.00,meteohub,2013-09-17 20:47:00,
2013-09-17 14:52:00,52.2,51.8,23.99,SE,135,22.0,25.0,99,0.00,,,0.00,meteohub,2013-09-17 20:52:00,
2013-09-17 14:57:00,52.3,52.0,24.00,SE,135,22.0,26.0,99,0.00,,,0.00,meteohub,2013-09-17 20:57:00,
2013-09-17 15:02:00,53.1,52.5,24.00,South,180,25.0,26.0,98,0.00,,,0.00,meteohub,2013-09-17 21:02:00,
2013-09-17 15:07:00,53.1,52.5,24.00,South,180,25.0,26.0,98,0.00,,,0.00,meteohub,2013-09-17 21:07:00,
2013-09-17 15:12:00,54.1,52.2,24.00,South,180,17.0,25.0,93,0.00,,,0.00,meteohub,2013-09-17 21:12:00,
2013-09-17 15:17:00,54.0,51.1,24.00,South,180,21.0,25.0,90,0.00,,,0.00,meteohub,2013-09-17 21:17:00,
2013-09-17 15:22:00,54.0,50.7,24.00,South,180,21.0,25.0,89,0.00,,,0.00,meteohub,2013-09-17 21:22:00,
2013-09-17 15:27:00,54.0,50.5,24.00,South,180,21.0,23.0,88,0.00,,,0.00,meteohub,2013-09-17 21:27:00,
2013-09-17 15:32:00,54.0,50.2,24.00,South,180,18.0,23.0,87,0.00,,,0.00,meteohub,2013-09-17 21:32:00,
2013-09-17 15:37:00,54.1,50.0,24.00,South,180,14.0,23.0,86,0.00,,,0.00,meteohub,2013-09-17 21:37:00,
2013-09-17 15:42:00,54.1,50.9,24.00,South,180,14.0,21.0,89,0.00,,,0.00,meteohub,2013-09-17 21:42:00,
2013-09-17 15:47:00,53.8,50.9,24.00,South,180,15.0,18.0,90,0.00,,,0.00,meteohub,2013-09-17 21:47:00,
2013-09-17 15:52:00,53.4,51.1,24.00,South,180,15.0,17.0,92,0.00,,,0.00,meteohub,2013-09-17 21:52:00,
2013-09-17 15:57:00,53.2,50.9,24.01,South,180,12.0,17.0,92,0.00,,,0.00,meteohub,2013-09-17 21:57:00,
2013-09-17 16:02:00,53.4,51.1,24.01,South,180,14.0,17.0,92,0.00,,,0.00,meteohub,2013-09-17 22:02:00,
2013-09-17 16:07:00,53.4,51.1,24.01,South,180,14.0,15.0,92,0.00,,,0.00,meteohub,2013-09-17 22:07:00,
2013-09-17 16:12:00,53.2,48.9,24.01,SSW,203,21.0,21.0,85,0.00,,,0.00,meteohub,2013-09-17 22:12:00,
2013-09-17 16:17:00,52.9,49.6,24.02,SW,225,21.0,21.0,89,0.00,,,0.00,meteohub,2013-09-17 22:17:00,
2013-09-17 16:22:00,52.3,49.8,24.02,South,180,25.0,25.0,91,0.00,,,0.00,meteohub,2013-09-17 22:22:00,
2013-09-17 16:27:00,51.8,49.6,24.02,South,180,22.0,25.0,92,0.00,,,0.00,meteohub,2013-09-17 22:27:00,
2013-09-17 16:32:00,51.3,49.3,24.02,SSW,203,21.0,25.0,93,0.00,,,0.00,meteohub,2013-09-17 22:32:00,
2013-09-17 16:37:00,50.9,49.3,24.01,South,180,23.0,26.0,94,0.00,,,0.00,meteohub,2013-09-17 22:37:00,
2013-09-17 16:42:00,50.9,49.3,24.01,SW,225,22.0,26.0,94,0.00,,,0.00,meteohub,2013-09-17 22:42:00,
2013-09-17 16:47:00,50.5,48.6,24.01,SSW,203,23.0,26.0,93,0.00,,,0.00,meteohub,2013-09-17 22:47:00,
2013-09-17 16:52:00,50.5,48.4,24.01,South,180,23.0,24.0,92,0.00,,,0.00,meteohub,2013-09-17 22:52:00,
2013-09-17 16:57:00,50.4,48.2,24.00,South,180,17.0,25.0,92,0.00,,,0.00,meteohub,2013-09-17 22:57:00,
2013-09-17 17:02:00,50.4,47.8,23.98,South,180,15.0,25.0,91,0.00,,,0.00,meteohub,2013-09-17 23:02:00,
2013-09-17 17:07:00,50.4,47.8,23.96,South,180,15.0,25.0,91,0.00,,,0.00,meteohub,2013-09-17 23:07:00,
2013-09-17 17:12:00,49.6,49.5,23.96,SE,135,23.0,23.0,99,0.00,,,0.00,meteohub,2013-09-17 23:12:00,
2013-09-17 17:17:00,49.3,49.1,23.95,SE,135,22.0,26.0,99,0.00,,,0.00,meteohub,2013-09-17 23:17:00,
2013-09-17 17:22:00,49.6,49.5,23.95,SE,135,23.0,26.0,99,0.00,,,0.00,meteohub,2013-09-17 23:22:00,
2013-09-17 17:27:00,49.8,49.5,23.95,South,180,17.0,26.0,99,0.00,,,0.00,meteohub,2013-09-17 23:27:00,
2013-09-17 17:32:00,50.0,49.6,23.96,South,180,21.0,26.0,99,0.00,,,0.00,meteohub,2013-09-17 23:32:00,
2013-09-17 17:37:00,50.4,50.0,23.96,South,180,18.0,24.0,99,0.00,,,0.00,meteohub,2013-09-17 23:37:00,
2013-09-17 17:42:00,50.5,49.5,23.95,South,180,22.0,23.0,96,0.00,,,0.00,meteohub,2013-09-17 23:42:00,
2013-09-17 17:47:00,50.7,50.4,23.96,South,180,20.0,23.0,99,0.00,,,0.00,meteohub,2013-09-17 23:47:00,
2013-09-17 17:52:00,50.7,50.4,23.95,SW,225,18.0,23.0,99,0.00,,,0.00,meteohub,2013-09-17 23:52:00,
2013-09-17 17:57:00,51.1,49.6,23.95,South,180,20.0,22.0,95,0.00,,,0.00,meteohub,2013-09-17 23:57:00,
2013-09-17 18:02:00,51.3,49.3,23.95,South,180,21.0,22.0,93,0.00,,,0.00,meteohub,2013-09-18 00:02:00,
2013-09-17 18:07:00,51.3,49.3,23.94,South,180,21.0,21.0,93,0.00,,,0.00,meteohub,2013-09-18 00:07:00,
2013-09-17 18:12:00,50.9,49.8,23.95,South,180,23.0,23.0,96,0.00,,,0.00,meteohub,2013-09-18 00:12:00,
2013-09-17 18:17:00,50.9,50.0,23.95,South,180,21.0,23.0,97,0.00,,,0.00,meteohub,2013-09-18 00:17:00,
2013-09-17 18:22:00,50.9,49.5,23.95,South,180,23.0,24.0,95,0.00,,,0.00,meteohub,2013-09-18 00:22:00,
2013-09-17 18:27:00,51.1,49.5,23.96,South,180,20.0,26.0,94,0.00,,,0.00,meteohub,2013-09-18 00:27:00,
2013-09-17 18:32:00,51.3,48.2,23.96,South,180,24.0,26.0,89,0.00,,,0.00,meteohub,2013-09-18 00:32:00,
2013-09-17 18:37:00,51.3,47.8,23.97,South,180,23.0,27.0,88,0.00,,,0.00,meteohub,2013-09-18 00:37:00,
2013-09-17 18:42:00,51.1,48.0,23.97,South,180,23.0,27.0,89,0.00,,,0.00,meteohub,2013-09-18 00:42:00,
2013-09-17 18:47:00,52.2,46.6,23.98,South,180,20.0,27.0,81,0.00,,,0.00,meteohub,2013-09-18 00:47:00,
2013-09-17 18:52:00,51.3,47.5,23.97,South,180,8.0,27.0,87,0.00,,,0.00,meteohub,2013-09-18 00:52:00,
2013-09-17 18:57:00,51.1,47.1,23.96,SE,135,18.0,27.0,86,0.00,,,0.00,meteohub,2013-09-18 00:57:00,
2013-09-17 19:02:00,51.8,46.4,23.95,SE,135,16.0,27.0,82,0.00,,,0.00,meteohub,2013-09-18 01:02:00,
2013-09-17 19:07:00,51.8,46.4,23.95,SE,135,16.0,21.0,82,0.00,,,0.00,meteohub,2013-09-18 01:07:00,
2013-09-17 19:12:00,49.6,49.5,23.95,SE,135,24.0,24.0,99,0.00,,,0.00,meteohub,2013-09-18 01:12:00,
2013-09-17 19:17:00,49.3,49.1,23.95,SSE,158,22.0,33.0,99,0.00,,,0.00,meteohub,2013-09-18 01:17:00,
2013-09-17 19:22:00,49.1,48.9,23.95,SE,135,23.0,33.0,99,0.00,,,0.00,meteohub,2013-09-18 01:22:00,
2013-09-17 19:27:00,49.1,48.9,23.94,South,180,29.0,33.0,99,0.00,,,0.00,meteohub,2013-09-18 01:27:00,
2013-09-17 19:32:00,49.3,49.1,23.94,South,180,21.0,30.0,99,0.00,,,0.00,meteohub,2013-09-18 01:32:00,
2013-09-17 19:37:00,49.5,48.9,23.93,SE,135,24.0,29.0,98,0.00,,,0.00,meteohub,2013-09-18 01:37:00,
2013-09-17 19:42:00,49.6,48.6,23.92,South,180,26.0,29.0,96,0.00,,,0.00,meteohub,2013-09-18 01:42:00,
2013-09-17 19:47:00,50.4,47.3,23.92,South,180,30.0,30.0,89,0.00,,,0.00,meteohub,2013-09-18 01:47:00,
2013-09-17 19:52:00,51.3,45.7,23.92,South,180,34.0,34.0,81,0.00,,,0.00,meteohub,2013-09-18 01:52:00,
2013-09-17 19:57:00,50.9,46.9,23.92,South,180,25.0,34.0,86,0.00,,,0.00,meteohub,2013-09-18 01:57:00,
2013-09-17 20:02:00,50.2,47.7,23.92,South,180,23.0,34.0,91,0.00,,,0.00,meteohub,2013-09-18 02:02:00,
2013-09-17 20:07:00,50.2,47.7,23.93,South,180,23.0,34.0,91,0.00,,,0.00,meteohub,2013-09-18 02:07:00,
2013-09-17 20:12:00,49.5,47.5,23.94,South,180,20.0,27.0,93,0.00,,,0.00,meteohub,2013-09-18 02:12:00,
2013-09-17 20:17:00,49.6,47.5,23.93,South,180,26.0,28.0,92,0.00,,,0.00,meteohub,2013-09-18 02:17:00,
2013-09-17 20:22:00,49.6,47.5,23.93,South,180,25.0,28.0,92,0.00,,,0.00,meteohub,2013-09-18 02:22:00,
2013-09-17 20:27:00,50.0,46.9,23.93,South,180,26.0,28.0,89,0.00,,,0.00,meteohub,2013-09-18 02:27:00,
2013-09-17 20:32:00,49.6,47.7,23.93,South,180,29.0,30.0,93,0.00,,,0.00,meteohub,2013-09-18 02:32:00,
2013-09-17 20:37:00,48.9,47.8,23.92,South,180,20.0,30.0,96,0.00,,,0.00,meteohub,2013-09-18 02:37:00,
2013-09-17 20:42:00,48.7,47.8,23.92,South,180,19.0,30.0,97,0.00,,,0.00,meteohub,2013-09-18 02:42:00,
2013-09-17 20:47:00,49.1,47.7,23.93,South,180,21.0,29.0,95,0.00,,,0.00,meteohub,2013-09-18 02:47:00,
2013-09-17 20:52:00,50.0,46.0,23.92,South,180,22.0,27.0,86,0.00,,,0.00,meteohub,2013-09-18 02:52:00,
2013-09-17 20:57:00,49.6,46.8,23.93,South,180,25.0,27.0,90,0.00,,,0.00,meteohub,2013-09-18 02:57:00,
2013-09-17 21:02:00,49.8,46.8,23.93,South,180,25.0,27.0,89,0.00,,,0.00,meteohub,2013-09-18 03:02:00,
2013-09-17 21:07:00,49.8,46.8,23.93,South,180,25.0,27.0,89,0.00,,,0.00,meteohub,2013-09-18 03:07:00,
2013-09-17 21:12:00,49.1,46.6,23.93,South,180,26.0,27.0,91,0.00,,,0.00,meteohub,2013-09-18 03:12:00,
2013-09-17 21:17:00,49.5,46.4,23.93,South,180,27.0,27.0,89,0.00,,,0.00,meteohub,2013-09-18 03:17:00,
2013-09-17 21:22:00,49.6,46.2,23.92,SSE,158,25.0,27.0,88,0.00,,,0.00,meteohub,2013-09-18 03:22:00,
2013-09-17 21:27:00,49.6,46.6,23.92,South,180,21.0,30.0,89,0.00,,,0.00,meteohub,2013-09-18 03:27:00,
2013-09-17 21:32:00,49.6,46.2,23.92,South,180,19.0,30.0,88,0.00,,,0.00,meteohub,2013-09-18 03:32:00,
2013-09-17 21:37:00,49.5,46.4,23.92,South,180,22.0,30.0,89,0.00,,,0.00,meteohub,2013-09-18 03:37:00,
2013-09-17 21:42:00,49.5,46.6,23.92,South,180,22.0,27.0,90,0.00,,,0.00,meteohub,2013-09-18 03:42:00,
2013-09-17 21:47:00,49.1,46.2,23.93,South,180,22.0,27.0,90,0.00,,,0.00,meteohub,2013-09-18 03:47:00,
2013-09-17 21:52:00,49.5,46.6,23.93,South,180,25.0,27.0,90,0.00,,,0.00,meteohub,2013-09-18 03:52:00,
2013-09-17 21:57:00,49.5,46.4,23.93,South,180,22.0,27.0,89,0.00,,,0.00,meteohub,2013-09-18 03:57:00,
2013-09-17 22:02:00,49.5,46.4,23.94,South,180,21.0,27.0,89,0.00,,,0.00,meteohub,2013-09-18 04:02:00,
2013-09-17 22:07:00,49.5,46.4,23.93,South,180,21.0,27.0,89,0.00,,,0.00,meteohub,2013-09-18 04:07:00,
2013-09-17 22:12:00,49.5,46.6,23.93,South,180,21.0,25.0,90,0.00,,,0.00,meteohub,2013-09-18 04:12:00,
2013-09-17 22:17:00,49.3,46.2,23.94,South,180,21.0,29.0,89,0.00,,,0.00,meteohub,2013-09-18 04:17:00,
2013-09-17 22:22:00,49.5,46.0,23.93,South,180,22.0,29.0,88,0.00,,,0.00,meteohub,2013-09-18 04:22:00,
2013-09-17 22:27:00,49.3,46.2,23.93,South,180,20.0,24.0,89,0.00,,,0.00,meteohub,2013-09-18 04:27:00,
2013-09-17 22:32:00,49.1,46.2,23.94,South,180,21.0,24.0,90,0.00,,,0.00,meteohub,2013-09-18 04:32:00,
2013-09-17 22:37:00,49.1,46.6,23.94,South,180,19.0,23.0,91,0.00,,,0.00,meteohub,2013-09-18 04:37:00,
2013-09-17 22:42:00,49.6,45.9,23.94,South,180,23.0,23.0,87,0.00,,,0.00,meteohub,2013-09-18 04:42:00,
2013-09-17 22:47:00,49.5,46.0,23.94,South,180,18.0,23.0,88,0.00,,,0.00,meteohub,2013-09-18 04:47:00,
2013-09-17 22:52:00,49.3,46.2,23.94,SSE,158,17.0,23.0,89,0.00,,,0.00,meteohub,2013-09-18 04:52:00,
2013-09-17 22:57:00,49.1,46.0,23.94,SSE,158,19.0,23.0,89,0.00,,,0.00,meteohub,2013-09-18 04:57:00,
2013-09-17 23:02:00,48.9,46.4,23.94,South,180,15.0,23.0,91,0.00,,,0.00,meteohub,2013-09-18 05:02:00,
2013-09-17 23:07:00,48.9,46.4,23.94,South,180,15.0,20.0,91,0.00,,,0.00,meteohub,2013-09-18 05:07:00,
2013-09-17 23:12:00,48.4,46.8,23.94,SE,135,19.0,19.0,94,0.00,,,0.00,meteohub,2013-09-18 05:12:00,
2013-09-17 23:17:00,48.4,46.4,23.95,South,180,17.0,22.0,93,0.00,,,0.00,meteohub,2013-09-18 05:17:00,
2013-09-17 23:22:00,48.7,46.6,23.94,South,180,17.0,22.0,92,0.00,,,0.00,meteohub,2013-09-18 05:22:00,
2013-09-17 23:27:00,48.6,46.4,23.94,South,180,16.0,22.0,92,0.00,,,0.00,meteohub,2013-09-18 05:27:00,
2013-09-17 23:32:00,48.7,46.2,23.94,South,180,17.0,22.0,91,0.00,,,0.00,meteohub,2013-09-18 05:32:00,
2013-09-17 23:37:00,48.7,46.2,23.94,South,180,15.0,21.0,91,0.00,,,0.00,meteohub,2013-09-18 05:37:00,
2013-09-17 23:42:00,48.7,46.2,23.94,South,180,17.0,17.0,91,0.00,,,0.00,meteohub,2013-09-18 05:42:00,
2013-09-17 23:47:00,49.1,46.0,23.93,SE,135,22.0,22.0,89,0.00,,,0.00,meteohub,2013-09-18 05:47:00,
2013-09-17 23:52:00,48.2,46.6,23.93,SE,135,22.0,22.0,94,0.00,,,0.00,meteohub,2013-09-18 05:52:00,
2013-09-17 23:57:00,48.0,46.6,23.93,SSE,158,21.0,24.0,95,0.00,,,0.00,meteohub,2013-09-18 05:57:00,